Time;durP1;ratioP1;P1;durP2;ratioP2;P2;SDS_P1;SDS_P2;PMS_P1;PMS_P2;Temp;Humidity;BMP_temperature;BMP_pressure;BME280_temperature;BME280_humidity;BME280_pressure;Samples;Min_cycle;Max_cycle;Signal;HPM_P1;HPM_P2
2023/10/09 00:03:27;;;;;;;1.17;0.52;;;;;;;;;;6175443;28;20030;-82
2023/10/09 00:06:36;;;;;;;0.75;0.55;;;;;;;;;;6173350;28;20498;-82
2023/10/09 00:09:46;;;;;;;0.52;0.52;;;;;;;;;;6170543;28;20027;-82
2023/10/09 00:12:48;;;;;;;0.57;0.50;;;;;;;;;;6180502;28;20038;-81
2023/10/09 00:15:53;;;;;;;1.00;0.50;;;;;;;;;;6182361;28;20140;-81
2023/10/09 00:18:53;;;;;;;0.80;0.60;;;;;;;;;;6168960;28;20027;-81
2023/10/09 00:21:55;;;;;;;0.83;0.70;;;;;;;;;;6177167;28;20066;-81
2023/10/09 00:25:11;;;;;;;0.73;0.63;;;;;;;;;;6177757;28;20027;-81
2023/10/09 00:28:13;;;;;;;0.77;0.57;;;;;;;;;;6177595;28;20056;-81
2023/10/09 00:31:25;;;;;;;0.77;0.60;;;;;;;;;;6183516;28;20499;-81
2023/10/09 00:34:26;;;;;;;1.48;0.63;;;;;;;;;;6177375;28;20329;-81
2023/10/09 00:37:33;;;;;;;1.27;0.65;;;;;;;;;;6178094;28;20122;-80
2023/10/09 00:40:36;;;;;;;0.70;0.50;;;;;;;;;;6167572;28;20040;-81
2023/10/09 00:43:42;;;;;;;0.52;0.52;;;;;;;;;;6184859;28;20026;-81
2023/10/09 00:46:43;;;;;;;0.40;0.40;;;;;;;;;;6179907;28;20034;-82
2023/10/09 00:49:43;;;;;;;1.07;0.60;;;;;;;;;;6178104;28;20437;-81
2023/10/09 00:53:01;;;;;;;0.88;0.80;;;;;;;;;;6181510;28;20387;-82
2023/10/09 00:56:18;;;;;;;0.93;0.55;;;;;;;;;;6168343;28;20085;-81
2023/10/09 00:59:23;;;;;;;1.40;0.60;;;;;;;;;;6180834;28;20494;-81
2023/10/09 01:02:41;;;;;;;0.85;0.65;;;;;;;;;;6181912;28;20037;-81
2023/10/09 01:05:51;;;;;;;0.57;0.57;;;;;;;;;;6180402;28;20072;-81
2023/10/09 01:09:09;;;;;;;0.60;0.55;;;;;;;;;;6163117;28;20038;-81
2023/10/09 01:12:16;;;;;;;0.70;0.55;;;;;;;;;;6180419;28;20038;-82
2023/10/09 01:15:36;;;;;;;0.63;0.57;;;;;;;;;;6179869;28;20242;-81
2023/10/09 01:18:38;;;;;;;0.73;0.60;;;;;;;;;;6163846;28;20026;-82
2023/10/09 01:21:39;;;;;;;1.23;0.73;;;;;;;;;;6177103;28;20089;-81
2023/10/09 01:24:40;;;;;;;;;;;;;;;;;;6180502;28;20043;-81
2023/10/09 01:27:40;;;;;;;1.57;0.70;;;;;;;;;;6177566;28;19917;-80
2023/10/09 01:30:41;;;;;;;0.70;0.70;;;;;;;;;;6165501;28;20391;-81
2023/10/09 01:33:41;;;;;;;;;;;;;;;;;;6163455;28;20038;-81
2023/10/09 01:36:42;;;;;;;0.53;0.40;;;;;;;;;;6179217;28;20686;-81
2023/10/09 01:39:42;;;;;;;0.53;0.53;;;;;;;;;;6178543;28;20368;-81
2023/10/09 01:42:45;;;;;;;1.13;0.60;;;;;;;;;;6179265;28;20478;-81
2023/10/09 01:45:46;;;;;;;1.73;0.50;;;;;;;;;;6180804;28;20039;-81
2023/10/09 01:48:46;;;;;;;1.00;0.70;;;;;;;;;;6176437;28;20026;-81
2023/10/09 01:51:48;;;;;;;0.70;0.50;;;;;;;;;;6164550;28;20043;-81
2023/10/09 01:54:50;;;;;;;0.70;0.60;;;;;;;;;;6186008;28;20025;-81
2023/10/09 01:57:51;;;;;;;0.52;0.52;;;;;;;;;;6174006;28;20026;-82
2023/10/09 02:01:01;;;;;;;1.00;0.80;;;;;;;;;;6182677;28;20494;-81
2023/10/09 02:04:08;;;;;;;1.07;0.60;;;;;;;;;;6177881;28;20041;-81
2023/10/09 02:07:08;;;;;;;0.70;0.63;;;;;;;;;;6177469;28;20026;-81
2023/10/09 02:10:25;;;;;;;0.50;0.50;;;;;;;;;;6180426;28;20479;-81
2023/10/09 02:13:35;;;;;;;0.65;0.60;;;;;;;;;;6178046;28;20065;-82
2023/10/09 02:16:41;;;;;;;0.70;0.63;;;;;;;;;;6180845;28;20498;-81
2023/10/09 02:19:42;;;;;;;1.13;0.63;;;;;;;;;;6177181;28;20110;-81
2023/10/09 02:22:42;;;;;;;1.02;0.65;;;;;;;;;;6182154;28;20484;-81
2023/10/09 02:25:43;;;;;;;1.00;0.70;;;;;;;;;;6163134;28;20681;-82
2023/10/09 02:28:44;;;;;;;0.80;0.60;;;;;;;;;;6178696;28;20025;-81
2023/10/09 02:31:47;;;;;;;1.70;0.50;;;;;;;;;;6181150;28;20051;-81
2023/10/09 02:34:48;;;;;;;1.40;0.80;;;;;;;;;;6173733;28;20423;-81
2023/10/09 02:37:49;;;;;;;1.70;0.70;;;;;;;;;;6178356;28;20023;-81
2023/10/09 02:44:11;;;;;;;0.90;0.63;;;;;;;;;;6177118;28;20126;-81
2023/10/09 02:47:17;;;;;;;0.73;0.63;;;;;;;;;;6177983;28;20043;-81
2023/10/09 02:50:21;;;;;;;1.00;0.60;;;;;;;;;;6178916;28;20033;-81
2023/10/09 02:53:29;;;;;;;1.05;0.75;;;;;;;;;;6177801;28;20036;-81
2023/10/09 02:59:59;;;;;;;0.57;0.50;;;;;;;;;;6194844;28;20045;-81
2023/10/09 03:02:59;;;;;;;1.08;0.50;;;;;;;;;;6179721;28;21380;-81
2023/10/09 03:06:01;;;;;;;0.70;0.60;;;;;;;;;;6177781;28;20130;-81
2023/10/09 03:09:16;;;;;;;0.88;0.60;;;;;;;;;;6175793;28;20018;-81
2023/10/09 03:12:18;;;;;;;0.80;0.55;;;;;;;;;;6177292;28;20042;-81
2023/10/09 03:15:20;;;;;;;0.70;0.50;;;;;;;;;;6175808;28;20031;-81
2023/10/09 03:18:20;;;;;;;;;;;;;;;;;;6188843;28;20032;-81
2023/10/09 03:21:20;;;;;;;0.50;0.50;;;;;;;;;;6190180;28;19918;-81
2023/10/09 03:24:22;;;;;;;0.60;0.57;;;;;;;;;;6186534;28;20386;-82
2023/10/09 03:27:22;;;;;;;0.60;0.52;;;;;;;;;;6175489;28;20026;-81
2023/10/09 03:30:22;;;;;;;0.70;0.70;;;;;;;;;;6187465;28;20109;-81
2023/10/09 03:33:23;;;;;;;0.90;0.70;;;;;;;;;;6222032;28;20030;-81
2023/10/09 03:36:26;;;;;;;0.73;0.50;;;;;;;;;;6202517;28;20464;-81
2023/10/09 03:39:41;;;;;;;0.93;0.75;;;;;;;;;;6171153;28;20034;-81
2023/10/09 03:42:42;;;;;;;1.00;0.60;;;;;;;;;;6181985;28;20053;-81
2023/10/09 03:45:49;;;;;;;1.27;0.65;;;;;;;;;;6195412;28;20052;-81
2023/10/09 03:48:52;;;;;;;0.88;0.68;;;;;;;;;;6191466;28;20026;-81
2023/10/09 03:51:52;;;;;;;0.90;0.63;;;;;;;;;;6176093;28;20030;-81
2023/10/09 03:54:53;;;;;;;1.70;0.80;;;;;;;;;;6178530;28;20034;-81
2023/10/09 03:57:54;;;;;;;0.70;0.60;;;;;;;;;;6180631;28;20766;-81
2023/10/09 04:00:54;;;;;;;1.15;0.70;;;;;;;;;;6168354;28;20464;-81
2023/10/09 04:04:01;;;;;;;1.30;0.60;;;;;;;;;;6175709;28;20030;-81
2023/10/09 04:07:01;;;;;;;0.65;0.52;;;;;;;;;;6169279;28;20030;-81
2023/10/09 04:10:32;;;;;;;1.43;0.70;;;;;;;;;;6191686;28;20083;-81
2023/10/09 04:13:32;;;;;;;1.40;0.80;;;;;;;;;;6192582;28;20038;-81
2023/10/09 04:19:47;;;;;;;1.05;0.50;;;;;;;;;;6187836;28;20523;-81
2023/10/09 04:22:51;;;;;;;1.25;0.60;;;;;;;;;;6177219;28;20063;-81
2023/10/09 04:25:51;;;;;;;0.82;0.60;;;;;;;;;;6175891;28;20466;-82
2023/10/09 04:28:53;;;;;;;1.00;0.50;;;;;;;;;;6174955;28;20033;-81
2023/10/09 04:32:00;;;;;;;1.10;0.63;;;;;;;;;;6246502;28;20138;-81
2023/10/09 04:38:19;;;;;;;2.10;1.40;;;;;;;;;;6172426;28;20026;-82
2023/10/09 04:41:27;;;;;;;1.33;0.90;;;;;;;;;;6163940;28;20556;-82
2023/10/09 04:44:35;;;;;;;1.02;0.80;;;;;;;;;;6173402;28;20023;-82
2023/10/09 04:47:36;;;;;;;1.83;0.98;;;;;;;;;;6189528;28;20023;-82
2023/10/09 04:50:45;;;;;;;1.37;0.93;;;;;;;;;;6188971;28;20471;-82
2023/10/09 04:54:12;;;;;;;1.77;0.90;;;;;;;;;;6186686;28;20543;-82
2023/10/09 04:57:17;;;;;;;1.58;0.80;;;;;;;;;;5828453;28;9999993;-82
2023/10/09 05:03:29;;;;;;;1.10;0.80;;;;;;;;;;6199918;28;20057;-82
2023/10/09 05:13:13;;;;;;;1.00;0.90;;;;;;;;;;6193529;28;20030;-81
2023/10/09 05:16:28;;;;;;;1.10;0.80;;;;;;;;;;6190347;28;20399;-81
2023/10/09 05:19:29;;;;;;;1.98;0.75;;;;;;;;;;6168421;28;20455;-82
2023/10/09 05:22:29;;;;;;;1.02;0.90;;;;;;;;;;6193770;28;20058;-82
2023/10/09 05:28:52;;;;;;;1.58;1.33;;;;;;;;;;6170325;28;20031;-82
2023/10/09 05:35:07;;;;;;;1.77;0.75;;;;;;;;;;6176000;28;20027;-82
2023/10/09 05:38:23;;;;;;;1.15;0.88;;;;;;;;;;6192157;28;20238;-82
2023/10/09 05:51:12;;;;;;;1.63;1.13;;;;;;;;;;6195133;28;20539;-82
2023/10/09 05:54:48;;;;;;;1.60;1.08;;;;;;;;;;6174093;28;20035;-81
2023/10/09 06:01:05;;;;;;;1.88;1.20;;;;;;;;;;6179888;28;20402;-81
2023/10/09 06:04:15;;;;;;;0.98;0.85;;;;;;;;;;6168777;28;20035;-81
2023/10/09 06:07:23;;;;;;;1.30;0.90;;;;;;;;;;6189563;28;20458;-82
2023/10/09 06:10:38;;;;;;;1.50;1.20;;;;;;;;;;6171699;28;20487;-82
2023/10/09 06:13:45;;;;;;;3.20;1.13;;;;;;;;;;6180160;28;20104;-82
2023/10/09 06:20:39;;;;;;;1.40;1.00;;;;;;;;;;6180422;28;20023;-82
2023/10/09 06:23:50;;;;;;;2.63;0.90;;;;;;;;;;6174357;28;20053;-81
2023/10/09 06:26:51;;;;;;;1.05;0.90;;;;;;;;;;6186134;28;20027;-82
2023/10/09 06:30:13;;;;;;;1.67;0.85;;;;;;;;;;6185013;28;20364;-82
2023/10/09 06:33:29;;;;;;;1.25;0.80;;;;;;;;;;6192066;28;20380;-82
2023/10/09 06:36:31;;;;;;;0.80;0.75;;;;;;;;;;6183666;28;20055;-82
2023/10/09 06:42:55;;;;;;;1.80;0.82;;;;;;;;;;6178777;28;20030;-82
2023/10/09 06:46:22;;;;;;;1.10;0.60;;;;;;;;;;6192531;28;20022;-82
2023/10/09 06:49:33;;;;;;;1.52;0.80;;;;;;;;;;6192201;28;20037;-82
2023/10/09 06:52:57;;;;;;;0.80;0.60;;;;;;;;;;6167846;28;20027;-81
2023/10/09 06:56:05;;;;;;;1.45;1.02;;;;;;;;;;6168336;28;20101;-82
2023/10/09 07:02:27;;;;;;;1.00;0.80;;;;;;;;;;6194561;28;20408;-82
2023/10/09 07:05:38;;;;;;;0.82;0.60;;;;;;;;;;6165569;28;20452;-82
2023/10/09 07:08:38;;;;;;;1.10;0.77;;;;;;;;;;6186890;28;20031;-82
2023/10/09 07:20:52;;;;;;;1.03;0.70;;;;;;;;;;6187430;28;20046;-82
2023/10/09 07:23:57;;;;;;;2.10;0.90;;;;;;;;;;6184061;28;20030;-81
2023/10/09 07:27:06;;;;;;;1.80;1.00;;;;;;;;;;6172163;28;20029;-81
2023/10/09 07:30:35;;;;;;;1.08;0.93;;;;;;;;;;6168178;28;20041;-83
2023/10/09 07:36:48;;;;;;;2.38;0.90;;;;;;;;;;6192492;28;20041;-82
2023/10/09 07:39:57;;;;;;;1.02;0.73;;;;;;;;;;6173998;28;20426;-82
2023/10/09 07:43:04;;;;;;;1.75;0.90;;;;;;;;;;6189390;28;20027;-82
2023/10/09 07:49:21;;;;;;;1.40;0.70;;;;;;;;;;6189501;28;20049;-84
2023/10/09 07:52:21;;;;;;;1.20;0.80;;;;;;;;;;6178420;28;20026;-83
2023/10/09 07:55:39;;;;;;;1.88;0.90;;;;;;;;;;6170462;28;20631;-83
2023/10/09 07:58:46;;;;;;;1.00;0.70;;;;;;;;;;6168927;28;20081;-84
2023/10/09 08:01:52;;;;;;;1.58;1.00;;;;;;;;;;6185790;28;20079;-84
2023/10/09 08:04:53;;;;;;;1.33;0.80;;;;;;;;;;6173067;28;20042;-84
2023/10/09 08:08:18;;;;;;;1.77;1.00;;;;;;;;;;6185266;28;20034;-83
2023/10/09 08:14:45;;;;;;;1.85;1.02;;;;;;;;;;6192058;28;20146;-83
2023/10/09 08:17:59;;;;;;;1.50;0.85;;;;;;;;;;6197072;28;20030;-84
2023/10/09 08:24:04;;;;;;;1.38;0.65;;;;;;;;;;6175621;28;20039;-82
2023/10/09 08:36:37;;;;;;;0.50;0.50;;;;;;;;;;6196595;28;20036;-82
2023/10/09 08:39:37;;;;;;;1.80;0.93;;;;;;;;;;6198038;28;20064;-83
2023/10/09 08:42:38;;;;;;;1.30;0.80;;;;;;;;;;6187145;28;20034;-83
2023/10/09 08:45:39;;;;;;;1.13;0.70;;;;;;;;;;6179373;28;20121;-83
2023/10/09 08:48:39;;;;;;;1.42;0.80;;;;;;;;;;6183356;28;20054;-81
2023/10/09 08:51:42;;;;;;;2.03;0.80;;;;;;;;;;6208339;28;20037;-81
2023/10/09 08:54:43;;;;;;;1.50;0.82;;;;;;;;;;6219684;28;20265;-81
2023/10/09 08:57:47;;;;;;;1.05;0.80;;;;;;;;;;6193323;28;20026;-81
2023/10/09 09:00:47;;;;;;;1.30;0.75;;;;;;;;;;6190204;28;20034;-81
2023/10/09 09:03:50;;;;;;;1.00;0.90;;;;;;;;;;5863600;27;9999769;-81
2023/10/09 09:06:50;;;;;;;2.55;0.98;;;;;;;;;;6203342;28;20026;-81
2023/10/09 09:09:57;;;;;;;2.03;0.87;;;;;;;;;;6203226;28;20113;-81
2023/10/09 09:13:03;;;;;;;2.97;1.08;;;;;;;;;;6195060;28;20563;-82
2023/10/09 09:16:03;;;;;;;1.95;0.95;;;;;;;;;;6196082;28;20050;-82
2023/10/09 09:22:12;;;;;;;1.83;1.00;;;;;;;;;;6178949;28;20145;-81
2023/10/09 09:25:12;;;;;;;2.13;1.08;;;;;;;;;;6176947;28;20536;-82
2023/10/09 09:28:14;;;;;;;1.17;1.00;;;;;;;;;;6197509;28;20033;-82
2023/10/09 09:31:22;;;;;;;1.98;1.00;;;;;;;;;;6188483;28;20462;-83
2023/10/09 09:34:28;;;;;;;1.90;0.98;;;;;;;;;;6167340;28;20377;-82
2023/10/09 09:37:31;;;;;;;1.90;0.90;;;;;;;;;;6182449;28;20045;-82
2023/10/09 09:40:32;;;;;;;3.03;0.82;;;;;;;;;;6172644;28;20034;-82
2023/10/09 09:43:36;;;;;;;3.25;1.13;;;;;;;;;;6176037;28;20366;-82
2023/10/09 09:46:38;;;;;;;2.72;1.10;;;;;;;;;;6177003;28;20029;-82
2023/10/09 09:49:42;;;;;;;2.40;1.23;;;;;;;;;;6186744;28;20045;-82
2023/10/09 09:52:43;;;;;;;2.35;1.20;;;;;;;;;;6192259;28;20030;-81
2023/10/09 09:55:59;;;;;;;2.43;1.10;;;;;;;;;;6193644;28;20068;-81
2023/10/09 09:59:02;;;;;;;2.95;1.00;;;;;;;;;;6190353;28;20026;-81
2023/10/09 10:02:09;;;;;;;4.35;1.10;;;;;;;;;;6189627;28;20123;-81
2023/10/09 10:05:11;;;;;;;5.20;1.13;;;;;;;;;;6179743;28;20052;-81
2023/10/09 10:08:19;;;;;;;2.55;1.20;;;;;;;;;;6184684;28;20019;-81
2023/10/09 10:11:40;;;;;;;2.63;1.13;;;;;;;;;;6171327;28;20383;-82
2023/10/09 10:14:49;;;;;;;2.45;1.13;;;;;;;;;;6184538;28;20072;-81
2023/10/09 10:17:59;;;;;;;3.85;1.20;;;;;;;;;;6170155;28;20463;-82
2023/10/09 10:21:16;;;;;;;2.25;1.10;;;;;;;;;;6187060;28;20628;-81
2023/10/09 10:24:28;;;;;;;1.83;1.00;;;;;;;;;;6169642;28;20088;-80
2023/10/09 10:28:00;;;;;;;1.50;1.00;;;;;;;;;;6170097;28;20471;-81
2023/10/09 10:30:51;;;;;;;1.95;1.00;;;;;;;;;;6187704;28;20049;-79
2023/10/09 10:33:53;;;;;;;1.45;1.10;;;;;;;;;;6210995;28;20034;-80
2023/10/09 10:36:59;;;;;;;2.70;1.13;;;;;;;;;;6191693;28;20045;-81
2023/10/09 10:40:01;;;;;;;3.67;1.10;;;;;;;;;;6186813;28;20030;-81
2023/10/09 10:43:13;;;;;;;3.75;1.27;;;;;;;;;;6179235;28;20031;-81
2023/10/09 10:46:37;;;;;;;3.35;1.10;;;;;;;;;;6168602;28;20165;-81
2023/10/09 10:49:42;;;;;;;2.40;1.15;;;;;;;;;;5846814;28;10000414;-80
2023/10/09 10:52:42;;;;;;;2.33;1.10;;;;;;;;;;6185690;28;20027;-81
2023/10/09 10:55:48;;;;;;;;;;;;;;;;;;6171551;28;20045;-80
2023/10/09 11:05:14;;;;;;;2.00;1.05;;;;;;;;;;6189419;28;20023;-80
2023/10/09 11:08:14;;;;;;;2.35;1.20;;;;;;;;;;6206817;28;20528;-80
2023/10/09 11:11:15;;;;;;;;;;;;;;;;;;6194781;28;20113;-80
2023/10/09 11:14:17;;;;;;;1.60;0.90;;;;;;;;;;6194052;28;19906;-81
2023/10/09 11:17:25;;;;;;;2.25;1.10;;;;;;;;;;6193014;28;20368;-82
2023/10/09 11:20:26;;;;;;;2.60;1.15;;;;;;;;;;6185352;28;20103;-82
2023/10/09 11:23:36;;;;;;;3.65;1.08;;;;;;;;;;6194872;28;20196;-82
2023/10/09 11:26:40;;;;;;;1.73;1.02;;;;;;;;;;6196173;28;20148;-81
2023/10/09 11:33:02;;;;;;;3.28;1.17;;;;;;;;;;6198258;28;20048;-81
2023/10/09 11:36:07;;;;;;;3.80;1.00;;;;;;;;;;6205560;28;20030;-82
2023/10/09 11:39:23;;;;;;;2.58;1.30;;;;;;;;;;6194807;28;20109;-82
2023/10/09 11:42:37;;;;;;;2.55;1.10;;;;;;;;;;6175953;28;20054;-82
2023/10/09 11:45:38;;;;;;;3.30;1.27;;;;;;;;;;6193147;28;20104;-81
2023/10/09 11:49:13;;;;;;;;;;;;;;;;;;6196325;28;20057;-81
2023/10/09 11:55:14;;;;;;;1.73;1.00;;;;;;;;;;6180107;28;20574;-82
2023/10/09 11:58:22;;;;;;;2.50;1.10;;;;;;;;;;6177325;28;20031;-81
2023/10/09 12:01:23;;;;;;;3.80;1.30;;;;;;;;;;6173528;28;20027;-82
2023/10/09 12:04:30;;;;;;;;;;;;;;;;;;6174686;28;20092;-81
2023/10/09 12:07:30;;;;;;;2.42;1.08;;;;;;;;;;6163376;28;19940;-82
2023/10/09 12:10:30;;;;;;;;;;;;;;;;;;6177604;28;20039;-81
2023/10/09 12:13:31;;;;;;;1.58;1.02;;;;;;;;;;6172090;28;20008;-81
2023/10/09 12:16:32;;;;;;;;;;;;;;;;;;6174022;28;20030;-81
2023/10/09 12:19:33;;;;;;;1.23;1.02;;;;;;;;;;6174730;28;20388;-81
2023/10/09 12:22:33;;;;;;;;;;;;;;;;;;6185699;28;20066;-81
2023/10/09 12:25:35;;;;;;;1.52;0.90;;;;;;;;;;6174824;28;19920;-78
2023/10/09 12:28:35;;;;;;;1.63;1.15;;;;;;;;;;6221515;28;20488;-78
2023/10/09 12:31:35;;;;;;;;;;;;;;;;;;6176985;28;20035;-78
2023/10/09 12:34:38;;;;;;;2.93;1.20;;;;;;;;;;6172676;28;19941;-78
2023/10/09 12:37:40;;;;;;;1.63;1.00;;;;;;;;;;6181245;28;20472;-78
2023/10/09 12:40:43;;;;;;;2.08;1.27;;;;;;;;;;6178724;28;20076;-79
2023/10/09 12:43:43;;;;;;;2.65;1.10;;;;;;;;;;6173767;28;20053;-79
2023/10/09 12:46:51;;;;;;;;;;;;;;;;;;6179094;28;20038;-80
2023/10/09 12:49:53;;;;;;;1.80;1.00;;;;;;;;;;5837231;27;9999948;-79
2023/10/09 12:53:01;;;;;;;2.47;1.33;;;;;;;;;;6177462;28;20710;-78
2023/10/09 12:56:02;;;;;;;2.70;1.65;;;;;;;;;;6186076;28;20034;-78
2023/10/09 12:59:04;;;;;;;;;;;;;;;;;;6194448;28;20061;-77
2023/10/09 13:02:05;;;;;;;2.78;1.10;;;;;;;;;;6178156;28;19914;-78
2023/10/09 13:05:05;;;;;;;;;;;;;;;;;;6176089;28;20046;-79
2023/10/09 13:08:06;;;;;;;3.30;1.23;;;;;;;;;;6185542;28;20313;-78
2023/10/09 13:11:16;;;;;;;;;;;;;;;;;;6173313;28;20053;-78
2023/10/09 13:14:16;;;;;;;2.33;1.33;;;;;;;;;;6178681;28;20351;-77
2023/10/09 13:17:17;;;;;;;;;;;;;;;;;;6175352;28;20019;-77
2023/10/09 13:20:17;;;;;;;2.08;1.17;;;;;;;;;;6178957;28;19909;-78
2023/10/09 13:23:17;;;;;;;3.78;1.55;;;;;;;;;;6188742;28;20026;-78
2023/10/09 13:26:17;;;;;;;;;;;;;;;;;;6195498;28;20042;-77
2023/10/09 13:29:22;;;;;;;4.30;1.33;;;;;;;;;;6201977;28;19916;-77
2023/10/09 13:32:22;;;;;;;3.72;1.27;;;;;;;;;;6193375;28;20023;-78
2023/10/09 13:35:37;;;;;;;2.80;1.53;;;;;;;;;;6177026;28;20037;-78
2023/10/09 13:38:39;;;;;;;2.25;1.50;;;;;;;;;;6172968;28;20282;-78
2023/10/09 13:41:42;;;;;;;2.28;1.73;;;;;;;;;;6182190;28;20076;-78
2023/10/09 13:44:42;;;;;;;2.80;1.55;;;;;;;;;;6179659;28;20046;-78
2023/10/09 13:47:45;;;;;;;2.63;1.55;;;;;;;;;;6184387;28;20146;-78
2023/10/09 13:50:45;;;;;;;2.50;1.55;;;;;;;;;;6174603;28;20043;-78
2023/10/09 13:53:46;;;;;;;3.53;1.60;;;;;;;;;;6178652;28;20392;-78
2023/10/09 13:56:52;;;;;;;4.45;1.80;;;;;;;;;;6195892;28;20134;-79
2023/10/09 13:59:55;;;;;;;4.25;1.48;;;;;;;;;;6180977;28;20029;-78
2023/10/09 14:02:56;;;;;;;2.20;1.45;;;;;;;;;;6182263;28;20105;-77
2023/10/09 14:05:58;;;;;;;3.90;1.40;;;;;;;;;;6177958;28;20103;-77
2023/10/09 14:09:09;;;;;;;3.45;1.67;;;;;;;;;;6162780;28;20061;-77
2023/10/09 14:12:10;;;;;;;2.57;1.43;;;;;;;;;;6186286;28;20452;-78
2023/10/09 14:15:17;;;;;;;3.80;1.38;;;;;;;;;;6179916;28;20038;-77
2023/10/09 14:18:17;;;;;;;6.18;1.80;;;;;;;;;;6178335;28;20030;-77
2023/10/09 14:21:17;;;;;;;2.97;1.60;;;;;;;;;;6176894;28;20070;-75
2023/10/09 14:24:19;;;;;;;4.13;1.85;;;;;;;;;;6177918;28;20105;-74
2023/10/09 14:27:19;;;;;;;;;;;;;;;;;;6176345;28;20436;-75
2023/10/09 14:30:30;;;;;;;2.33;1.40;;;;;;;;;;6183339;28;19963;-74
2023/10/09 14:33:51;;;;;;;;;;;;;;;;;;6175907;28;20031;-77
2023/10/09 14:36:51;;;;;;;1.85;1.20;;;;;;;;;;6177836;28;20275;-76
2023/10/09 14:39:51;;;;;;;2.47;1.20;;;;;;;;;;6180344;28;20034;-76
2023/10/09 14:42:52;;;;;;;3.30;1.30;;;;;;;;;;6175980;28;20054;-77
2023/10/09 14:45:53;;;;;;;2.60;1.55;;;;;;;;;;6174371;28;20265;-81
2023/10/09 14:48:53;;;;;;;;;;;;;;;;;;6177663;28;20073;-81
2023/10/09 14:51:54;;;;;;;2.23;1.30;;;;;;;;;;6175963;28;20500;-81
2023/10/09 14:54:54;;;;;;;2.33;1.40;;;;;;;;;;6180971;28;20043;-81
2023/10/09 14:57:55;;;;;;;;;;;;;;;;;;6182440;28;20472;-80
2023/10/09 15:00:55;;;;;;;2.85;1.20;;;;;;;;;;6185603;28;20008;-80
2023/10/09 15:03:57;;;;;;;3.20;1.47;;;;;;;;;;6179405;28;20033;-80
2023/10/09 15:06:57;;;;;;;2.45;1.30;;;;;;;;;;6176659;28;20457;-81
2023/10/09 15:10:03;;;;;;;3.23;1.57;;;;;;;;;;6174245;28;20045;-80
2023/10/09 15:13:04;;;;;;;5.25;1.70;;;;;;;;;;6177485;28;20118;-80
2023/10/09 15:16:04;;;;;;;4.28;1.50;;;;;;;;;;6158624;28;20035;-80
2023/10/09 15:19:04;;;;;;;3.87;1.77;;;;;;;;;;6171550;28;20026;-80
2023/10/09 15:22:09;;;;;;;;;;;;;;;;;;6177593;28;20069;-80
2023/10/09 15:25:14;;;;;;;3.40;1.65;;;;;;;;;;6159069;28;19926;-80
2023/10/09 15:28:15;;;;;;;4.57;1.48;;;;;;;;;;6173620;28;20031;-81
2023/10/09 15:31:16;;;;;;;4.22;1.77;;;;;;;;;;5814679;28;10000160;-80
2023/10/09 15:34:18;;;;;;;2.53;1.63;;;;;;;;;;6173356;28;20027;-80
2023/10/09 15:37:18;;;;;;;3.95;1.77;;;;;;;;;;6156948;28;20099;-80
2023/10/09 15:40:23;;;;;;;4.77;1.57;;;;;;;;;;6175122;28;20047;-80
2023/10/09 15:43:25;;;;;;;3.53;1.77;;;;;;;;;;6159985;28;20141;-80
2023/10/09 15:46:33;;;;;;;3.10;1.77;;;;;;;;;;6158741;28;20423;-80
2023/10/09 15:49:34;;;;;;;4.60;1.83;;;;;;;;;;5829075;28;9999933;-79
2023/10/09 15:52:34;;;;;;;3.72;2.13;;;;;;;;;;6173960;28;20118;-80
2023/10/09 15:55:34;;;;;;;3.57;1.67;;;;;;;;;;6175874;28;20419;-80
2023/10/09 15:58:34;;;;;;;4.78;2.42;;;;;;;;;;6179140;28;20122;-80
2023/10/09 16:01:42;;;;;;;5.00;2.30;;;;;;;;;;6176526;28;20035;-80
2023/10/09 16:04:44;;;;;;;3.22;2.33;;;;;;;;;;6158940;28;20330;-79
2023/10/09 16:07:45;;;;;;;3.90;2.00;;;;;;;;;;6173878;28;20059;-80
2023/10/09 16:10:46;;;;;;;4.80;1.87;;;;;;;;;;6171034;28;20034;-81
2023/10/09 16:13:47;;;;;;;3.50;2.05;;;;;;;;;;6173784;28;20110;-80
2023/10/09 16:16:47;;;;;;;4.47;2.20;;;;;;;;;;6171331;28;20467;-80
2023/10/09 16:19:47;;;;;;;2.60;1.97;;;;;;;;;;6175619;28;20050;-81
2023/10/09 16:22:49;;;;;;;3.08;1.70;;;;;;;;;;6172265;28;20097;-82
2023/10/09 16:25:49;;;;;;;4.07;2.10;;;;;;;;;;6176808;28;20026;-81
2023/10/09 16:28:51;;;;;;;3.80;2.03;;;;;;;;;;6174272;28;20326;-81
2023/10/09 16:31:54;;;;;;;4.70;2.58;;;;;;;;;;6162202;28;20342;-81
2023/10/09 16:34:54;;;;;;;4.32;2.30;;;;;;;;;;6172756;28;20026;-81
2023/10/09 16:37:55;;;;;;;3.87;2.10;;;;;;;;;;6174825;28;20062;-81
2023/10/09 16:40:55;;;;;;;3.77;1.63;;;;;;;;;;6176456;28;20038;-82
2023/10/09 16:43:59;;;;;;;2.90;1.65;;;;;;;;;;6187478;28;20050;-82
2023/10/09 16:47:00;;;;;;;4.70;2.17;;;;;;;;;;6174424;28;20535;-81
2023/10/09 16:50:00;;;;;;;3.15;1.75;;;;;;;;;;6171126;28;20092;-80
2023/10/09 16:53:00;;;;;;;2.97;1.63;;;;;;;;;;6176018;28;20034;-82
2023/10/09 16:56:01;;;;;;;2.60;1.73;;;;;;;;;;6179302;28;20030;-82
2023/10/09 16:59:01;;;;;;;2.40;1.63;;;;;;;;;;6173669;28;20023;-82
2023/10/09 17:02:06;;;;;;;6.65;3.47;;;;;;;;;;6183882;28;20026;-82
2023/10/09 17:05:09;;;;;;;8.63;4.80;;;;;;;;;;6168264;28;20467;-78
2023/10/09 17:08:10;;;;;;;6.30;3.33;;;;;;;;;;6181073;28;20088;-77
2023/10/09 17:11:12;;;;;;;5.00;2.85;;;;;;;;;;6186364;28;20026;-77
2023/10/09 17:14:15;;;;;;;3.05;2.05;;;;;;;;;;6175713;28;20464;-77
2023/10/09 17:17:20;;;;;;;4.88;2.00;;;;;;;;;;6165303;28;20366;-78
2023/10/09 17:20:26;;;;;;;2.58;1.65;;;;;;;;;;6179316;28;20113;-78
2023/10/09 17:23:27;;;;;;;2.42;1.83;;;;;;;;;;6167513;28;20030;-78
2023/10/09 17:26:27;;;;;;;3.53;1.80;;;;;;;;;;6162921;28;20049;-78
2023/10/09 17:29:27;;;;;;;3.25;2.05;;;;;;;;;;6174241;28;20226;-78
2023/10/09 17:32:27;;;;;;;3.37;1.87;;;;;;;;;;6183550;28;20086;-78
2023/10/09 17:35:31;;;;;;;2.67;1.57;;;;;;;;;;6176891;28;20035;-77
2023/10/09 17:38:32;;;;;;;4.43;1.95;;;;;;;;;;6176709;28;20471;-78
2023/10/09 17:41:37;;;;;;;3.85;1.80;;;;;;;;;;6181483;28;20030;-78
2023/10/09 17:44:38;;;;;;;3.10;1.98;;;;;;;;;;6183208;28;20037;-77
2023/10/09 17:47:38;;;;;;;4.82;2.00;;;;;;;;;;6179913;28;20027;-78
2023/10/09 17:50:44;;;;;;;3.47;1.87;;;;;;;;;;5818539;28;10000104;-78
2023/10/09 17:53:46;;;;;;;6.05;2.03;;;;;;;;;;6179900;28;20109;-78
2023/10/09 17:56:47;;;;;;;3.95;1.65;;;;;;;;;;6180825;28;20022;-78
2023/10/09 17:59:47;;;;;;;3.22;2.13;;;;;;;;;;6180392;28;20084;-78
2023/10/09 18:02:51;;;;;;;3.50;2.13;;;;;;;;;;6176699;28;20034;-78
2023/10/09 18:05:52;;;;;;;4.20;2.03;;;;;;;;;;6179033;28;20034;-78
2023/10/09 18:08:52;;;;;;;5.83;2.17;;;;;;;;;;6174560;28;20026;-79
2023/10/09 18:11:56;;;;;;;3.75;2.20;;;;;;;;;;6178514;28;20049;-78
2023/10/09 18:14:59;;;;;;;3.95;2.47;;;;;;;;;;6174910;28;20034;-81
2023/10/09 18:18:00;;;;;;;3.50;2.17;;;;;;;;;;6176398;28;20030;-81
2023/10/09 18:21:02;;;;;;;4.25;2.10;;;;;;;;;;6190739;28;20054;-81
2023/10/09 18:24:05;;;;;;;5.82;2.13;;;;;;;;;;6177429;28;20467;-81
2023/10/09 18:27:07;;;;;;;3.83;2.05;;;;;;;;;;6183607;28;20034;-81
2023/10/09 18:30:11;;;;;;;2.70;1.77;;;;;;;;;;6175756;28;20041;-81
2023/10/09 18:33:11;;;;;;;3.63;2.08;;;;;;;;;;6179928;28;20045;-81
2023/10/09 18:36:12;;;;;;;5.40;3.17;;;;;;;;;;6175012;28;20467;-81
2023/10/09 18:39:12;;;;;;;4.10;2.50;;;;;;;;;;6179055;28;20041;-81
2023/10/09 18:42:12;;;;;;;3.83;2.00;;;;;;;;;;6178904;28;20026;-80
2023/10/09 18:45:15;;;;;;;3.75;1.80;;;;;;;;;;6179318;28;20808;-81
2023/10/09 18:48:17;;;;;;;3.17;1.98;;;;;;;;;;6175311;28;20026;-81
2023/10/09 18:51:18;;;;;;;2.95;1.88;;;;;;;;;;6177554;28;20049;-81
2023/10/09 18:54:18;;;;;;;5.20;2.03;;;;;;;;;;6179361;28;20375;-81
2023/10/09 18:57:21;;;;;;;2.50;1.70;;;;;;;;;;6176761;28;20023;-82
2023/10/09 19:00:30;;;;;;;3.88;2.03;;;;;;;;;;6185730;28;20041;-81
2023/10/09 19:03:31;;;;;;;5.35;2.22;;;;;;;;;;6204956;28;20513;-81
2023/10/09 19:06:31;;;;;;;5.32;2.13;;;;;;;;;;6210724;28;20026;-81
2023/10/09 19:09:32;;;;;;;5.13;2.22;;;;;;;;;;6171215;28;20043;-82
2023/10/09 19:12:32;;;;;;;5.50;2.60;;;;;;;;;;6174652;28;20031;-81
2023/10/09 19:15:32;;;;;;;3.93;1.87;;;;;;;;;;6174529;28;20083;-81
2023/10/09 19:18:37;;;;;;;3.35;1.75;;;;;;;;;;6178480;28;20018;-81
2023/10/09 19:21:37;;;;;;;3.08;1.63;;;;;;;;;;6177503;28;20050;-81
2023/10/09 19:24:40;;;;;;;4.30;1.77;;;;;;;;;;6178171;28;20093;-81
2023/10/09 19:27:40;;;;;;;5.20;2.00;;;;;;;;;;6179117;28;20030;-81
2023/10/09 19:30:40;;;;;;;4.23;1.73;;;;;;;;;;6175305;28;20445;-82
2023/10/09 19:33:43;;;;;;;3.47;1.97;;;;;;;;;;6182236;28;20093;-81
2023/10/09 19:36:47;;;;;;;4.65;1.83;;;;;;;;;;6177280;28;20050;-81
2023/10/09 19:39:47;;;;;;;4.28;1.77;;;;;;;;;;6177812;28;20042;-82
2023/10/09 19:42:47;;;;;;;3.50;1.60;;;;;;;;;;6178275;28;20486;-82
2023/10/09 19:45:51;;;;;;;2.77;1.60;;;;;;;;;;6161748;28;20026;-82
2023/10/09 19:48:51;;;;;;;3.33;1.52;;;;;;;;;;6175268;28;20041;-81
2023/10/09 19:51:51;;;;;;;4.20;1.80;;;;;;;;;;6161314;28;20038;-81
2023/10/09 19:54:55;;;;;;;3.50;1.80;;;;;;;;;;6162855;28;20019;-81
2023/10/09 19:57:55;;;;;;;4.03;1.70;;;;;;;;;;6175780;28;20023;-81
2023/10/09 20:00:59;;;;;;;2.80;1.37;;;;;;;;;;6175901;28;20375;-80
2023/10/09 20:03:59;;;;;;;2.47;1.60;;;;;;;;;;5822838;28;10000169;-81
2023/10/09 20:07:02;;;;;;;3.93;1.83;;;;;;;;;;6174296;28;20061;-79
2023/10/09 20:10:06;;;;;;;2.47;1.30;;;;;;;;;;6173580;28;20038;-80
2023/10/09 20:13:09;;;;;;;3.72;1.80;;;;;;;;;;6172550;28;20960;-81